createdAt,value
2022-08-05T00:02:21.684Z,100782.84
2022-08-05T00:04:55.604Z,100780.16
2022-08-05T00:07:59.253Z,100788.72
2022-08-05T00:10:10.161Z,100793.31
2022-08-05T00:12:56.112Z,100787.97
2022-08-05T00:15:55.326Z,100785.31
2022-08-05T00:18:10.472Z,100778.63
2022-08-05T00:20:48.878Z,100775.41
2022-08-05T00:23:15.589Z,100777.53
2022-08-05T00:25:45.974Z,100771.91
2022-08-05T00:28:13.199Z,100781.50
2022-08-05T00:30:41.196Z,100782.88
2022-08-05T00:33:15.442Z,100778.34
2022-08-05T00:39:58.053Z,100788.75
2022-08-05T00:42:33.912Z,100784.19
2022-08-05T00:45:01.253Z,100780.72
2022-08-05T00:47:53.184Z,100785.03
2022-08-05T00:50:14.705Z,100787.16
2022-08-05T00:52:41.732Z,100788.00
2022-08-05T00:55:12.265Z,100794.69
2022-08-05T00:57:58.282Z,100793.59
2022-08-05T01:00:26.356Z,100791.69
2022-08-05T01:02:53.090Z,100783.41
2022-08-05T01:05:19.870Z,100781.53
2022-08-05T01:08:29.860Z,100777.03
2022-08-05T01:10:40.575Z,100785.03
2022-08-05T01:13:59.187Z,100781.59
2022-08-05T01:16:49.918Z,100773.28
2022-08-05T01:19:21.780Z,100777.28
2022-08-05T01:22:18.833Z,100786.63
2022-08-05T01:24:50.819Z,100781.28
2022-08-05T01:27:55.526Z,100791.22
2022-08-05T01:30:33.504Z,100790.41
2022-08-05T01:33:06.151Z,100794.19
2022-08-05T01:35:51.557Z,100797.41
2022-08-05T01:38:27.532Z,100802.50
2022-08-05T01:41:01.549Z,100797.94
2022-08-05T01:43:29.789Z,100799.28
2022-08-05T01:45:57.712Z,100788.56
2022-08-05T01:48:27.579Z,100791.78
2022-08-05T01:50:56.737Z,100799.56
2022-08-05T01:53:54.630Z,100791.22
2022-08-05T01:56:13.851Z,100794.44
2022-08-05T01:59:04.166Z,100780.50
2022-08-05T02:01:39.982Z,100784.53
2022-08-05T02:04:09.295Z,100795.78
2022-08-05T02:06:38.981Z,100798.50
2022-08-05T02:09:07.161Z,100796.34
2022-08-05T02:11:48.157Z,100784.50
2022-08-05T02:14:53.289Z,100791.75
2022-08-05T02:18:28.317Z,100792.31
2022-08-05T02:20:22.187Z,100789.59
2022-08-05T02:22:58.450Z,100787.22
2022-08-05T02:25:33.126Z,100794.44
2022-08-05T02:28:02.428Z,100800.34
2022-08-05T02:30:54.071Z,100800.66
2022-08-05T02:33:24.314Z,100801.41
2022-08-05T02:36:05.111Z,100805.97
2022-08-05T02:38:35.053Z,100806.25
2022-08-05T02:41:14.521Z,100807.59
2022-08-05T02:44:02.663Z,100805.69
2022-08-05T02:46:31.710Z,100807.88
2022-08-05T02:48:59.256Z,100807.59
2022-08-05T02:51:28.502Z,100803.84
2022-08-05T02:54:36.127Z,100812.16
2022-08-05T02:57:01.975Z,100804.91
2022-08-05T02:59:30.566Z,100797.94
2022-08-05T03:02:17.717Z,100806.22
2022-08-05T03:04:45.565Z,100809.22
2022-08-05T03:07:21.434Z,100815.38
2022-08-05T03:10:00.485Z,100815.41
2022-08-05T03:12:33.110Z,100809.53
2022-08-05T03:14:59.778Z,100811.34
2022-08-05T03:17:26.800Z,100815.38
2022-08-05T03:19:54.304Z,100814.00
2022-08-05T03:22:31.892Z,100816.69
2022-08-05T03:25:02.320Z,100825.06
2022-08-05T03:27:59.307Z,100833.34
2022-08-05T03:30:33.776Z,100830.97
2022-08-05T03:33:02.841Z,100845.13
2022-08-05T03:35:33.626Z,100835.50
2022-08-05T03:38:02.709Z,100835.25
2022-08-05T03:40:31.864Z,100832.31
2022-08-05T03:43:01.512Z,100833.38
2022-08-05T03:45:55.232Z,100845.16
2022-08-05T03:48:29.518Z,100832.03
2022-08-05T03:52:38.246Z,100841.16
2022-08-05T03:55:52.580Z,100825.88
2022-08-05T03:56:54.522Z,100836.31
2022-08-05T03:59:46.984Z,100841.41
2022-08-05T04:02:17.578Z,100837.91
2022-08-05T04:05:03.522Z,100838.47
2022-08-05T04:07:31.140Z,100832.28
2022-08-05T04:10:00.014Z,100835.72
2022-08-05T04:12:29.938Z,100834.94
2022-08-05T04:14:59.171Z,100842.97
2022-08-05T04:17:26.233Z,100848.56
2022-08-05T04:20:23.438Z,100852.31
2022-08-05T04:22:50.152Z,100861.13
2022-08-05T04:25:17.194Z,100864.31
2022-08-05T04:27:57.287Z,100870.44
2022-08-05T04:30:24.858Z,100866.69
2022-08-05T04:32:53.281Z,100868.53
2022-08-05T04:35:20.125Z,100861.03
2022-08-05T04:38:02.604Z,100864.25
2022-08-05T04:40:37.232Z,100857.81
2022-08-05T04:43:11.010Z,100864.47
2022-08-05T04:45:48.252Z,100857.75
2022-08-05T04:48:18.488Z,100857.75
2022-08-05T04:51:03.218Z,100868.44
2022-08-05T04:53:36.560Z,100870.88
2022-08-05T04:56:14.746Z,100865.78
2022-08-05T04:58:54.033Z,100875.38
2022-08-05T05:02:05.791Z,100879.41
2022-08-05T05:04:07.229Z,100869.00
2022-08-05T05:06:39.653Z,100872.22
2022-08-05T05:09:14.181Z,100874.06
2022-08-05T05:11:54.457Z,100882.09
2022-08-05T05:14:27.973Z,100876.47
2022-08-05T05:17:00.224Z,100892.53
2022-08-05T05:19:37.194Z,100885.88
2022-08-05T05:22:22.727Z,100886.94
2022-08-05T05:24:56.917Z,100876.47
2022-08-05T05:27:25.306Z,100890.41
2022-08-05T05:30:15.567Z,100892.03
2022-08-05T05:32:57.191Z,100892.88
2022-08-05T05:35:29.009Z,100892.59
2022-08-05T05:38:09.471Z,100898.53
2022-08-05T05:40:47.940Z,100895.66
2022-08-05T05:43:27.693Z,100895.44
2022-08-05T05:46:05.207Z,100899.75
2022-08-05T05:48:34.506Z,100903.50
2022-08-05T05:51:15.263Z,100907.81
2022-08-05T05:53:54.110Z,100919.34
2022-08-05T05:56:33.306Z,100923.63
2022-08-05T05:59:08.209Z,100925.75
2022-08-05T06:01:40.147Z,100925.00
2022-08-05T06:04:12.706Z,100934.88
2022-08-05T06:06:47.542Z,100935.41
2022-08-05T06:09:17.389Z,100945.25
2022-08-05T06:12:01.732Z,100942.34
2022-08-05T06:14:34.795Z,100949.88
2022-08-05T06:17:22.407Z,100946.94
2022-08-05T06:19:56.908Z,100953.63
2022-08-05T06:22:33.770Z,100963.03
2022-08-05T06:25:01.848Z,100962.00
2022-08-05T06:28:11.506Z,100969.78
2022-08-05T06:30:34.955Z,100975.97
2022-08-05T06:33:02.342Z,100971.69
2022-08-05T06:36:07.208Z,100981.84
2022-08-05T06:38:15.870Z,100992.00
2022-08-05T06:40:44.701Z,100985.81
2022-08-05T06:43:57.868Z,100988.75
2022-08-05T06:46:06.761Z,100979.91
2022-08-05T06:48:54.755Z,100982.78
2022-08-05T06:51:29.089Z,100978.53
2022-08-05T06:53:58.454Z,100989.25
2022-08-05T06:56:26.638Z,100980.16
2022-08-05T06:58:53.779Z,100975.63
2022-08-05T07:01:20.780Z,100971.84
2022-08-05T07:03:47.814Z,100967.63
2022-08-05T07:06:15.315Z,100972.13
2022-08-05T07:08:47.793Z,100965.66
2022-08-05T07:11:22.200Z,100966.72
2022-08-05T07:14:07.910Z,100973.75
2022-08-05T07:17:56.816Z,100967.59
2022-08-05T07:22:28.646Z,100967.38
2022-08-05T07:25:23.908Z,100973.53
2022-08-05T07:27:57.250Z,100972.75
2022-08-05T07:30:32.628Z,100977.03
2022-08-05T07:33:05.088Z,100970.59
2022-08-05T07:36:04.134Z,100978.91
2022-08-05T07:38:33.312Z,100976.72
2022-08-05T07:42:08.234Z,100968.97
2022-08-05T07:43:57.772Z,100974.06
2022-08-05T07:46:26.891Z,100963.88
2022-08-05T07:49:01.587Z,100968.41
2022-08-05T07:51:40.353Z,100982.88
2022-08-05T07:54:09.945Z,100975.91
2022-08-05T07:57:00.888Z,100980.41
2022-08-05T07:59:38.808Z,100982.84
2022-08-05T08:02:15.701Z,100975.28
2022-08-05T08:04:47.411Z,100977.50
2022-08-05T08:07:15.124Z,100978.97
2022-08-05T08:09:44.982Z,100991.72
2022-08-05T08:12:35.611Z,100997.91
2022-08-05T08:15:02.496Z,101002.06
2022-08-05T08:17:30.642Z,100999.97
2022-08-05T08:20:22.635Z,101003.94
2022-08-05T08:22:43.932Z,100997.22
2022-08-05T08:25:16.015Z,101002.31
2022-08-05T08:27:47.441Z,100994.59
2022-08-05T08:30:28.572Z,101012.06
2022-08-05T08:33:04.680Z,101004.84
2022-08-05T08:35:41.348Z,100996.25
2022-08-05T08:38:36.083Z,100996.13
2022-08-05T08:41:09.911Z,101001.50
2022-08-05T08:45:19.797Z,101007.13
2022-08-05T08:46:26.075Z,101000.56
2022-08-05T08:49:06.317Z,101000.53
2022-08-05T08:52:06.098Z,101002.22
2022-08-05T08:54:30.993Z,101009.09
2022-08-05T08:56:59.538Z,101014.78
2022-08-05T08:59:27.727Z,101010.22
2022-08-05T09:02:01.996Z,101005.22
2022-08-05T09:04:30.410Z,101008.56
2022-08-05T09:06:58.463Z,101010.72
2022-08-05T09:09:34.834Z,101012.69
2022-08-05T09:12:14.412Z,101012.16
2022-08-05T09:14:58.131Z,101015.75
2022-08-05T09:17:40.501Z,101022.91
2022-08-05T09:20:11.073Z,101012.41
2022-08-05T09:23:05.558Z,101005.94
2022-08-05T09:26:00.897Z,101007.44
2022-08-05T09:28:31.643Z,101009.47
2022-08-05T09:31:23.353Z,101006.59
2022-08-05T09:33:55.069Z,101001.56
2022-08-05T09:36:27.661Z,101013.78
2022-08-05T09:39:18.083Z,101011.25
2022-08-05T09:41:56.924Z,101006.75
2022-08-05T09:44:46.048Z,101013.81
2022-08-05T09:47:20.490Z,101020.00
2022-08-05T09:50:01.680Z,101011.16
2022-08-05T09:52:29.302Z,101013.38
2022-08-05T09:55:06.514Z,101013.56
2022-08-05T09:57:49.402Z,101009.94
2022-08-05T10:00:26.417Z,101016.00
2022-08-05T10:02:58.304Z,101024.19
2022-08-05T10:05:27.815Z,101017.88
2022-08-05T10:08:34.771Z,101018.59
2022-08-05T10:10:53.871Z,101014.47
2022-08-05T10:13:47.772Z,101012.31
2022-08-05T10:16:41.764Z,101021.16
2022-08-05T10:19:23.602Z,101025.84
2022-08-05T10:22:09.112Z,101015.88
2022-08-05T10:24:42.348Z,101017.59
2022-08-05T10:27:14.337Z,101026.81
2022-08-05T10:30:07.014Z,101032.22
2022-08-05T10:32:52.274Z,101022.78
2022-08-05T10:35:18.007Z,101018.78
2022-08-05T10:37:45.293Z,101026.97
2022-08-05T10:40:29.943Z,101027.28
2022-08-05T10:43:04.898Z,101029.75
2022-08-05T10:45:42.214Z,101023.41
2022-08-05T10:48:57.261Z,101016.78
2022-08-05T10:51:28.543Z,101022.03
2022-08-05T10:53:56.023Z,101027.47
2022-08-05T10:56:30.424Z,101035.59
2022-08-05T10:59:03.793Z,101040.72
2022-08-05T11:01:55.012Z,101041.31
2022-08-05T11:04:28.241Z,101041.84
2022-08-05T11:06:57.875Z,101030.34
2022-08-05T11:09:39.268Z,101044.91
2022-08-05T11:12:42.103Z,101036.50
2022-08-05T11:15:21.651Z,101029.25
2022-08-05T11:17:57.810Z,101027.63
2022-08-05T11:20:32.963Z,101041.38
2022-08-05T11:23:05.770Z,101036.66
2022-08-05T11:26:04.816Z,101041.09
2022-08-05T11:28:22.002Z,101067.53
2022-08-05T11:30:55.969Z,101057.69
2022-08-05T11:33:43.748Z,101056.09
2022-08-05T11:36:16.173Z,101059.19
2022-08-05T11:39:01.665Z,101067.41
2022-08-05T11:41:58.330Z,101062.91
2022-08-05T11:44:40.442Z,101058.44
2022-08-05T11:47:10.461Z,101059.19
2022-08-05T11:49:42.982Z,101065.28
2022-08-05T11:52:11.335Z,101066.03
2022-08-05T11:54:40.731Z,101078.16
2022-08-05T11:57:25.873Z,101066.78
2022-08-05T11:59:54.338Z,101070.00
2022-08-05T12:02:31.154Z,101077.91
2022-08-05T12:05:00.817Z,101071.44
2022-08-05T12:08:09.012Z,101069.44
2022-08-05T12:10:24.861Z,101074.72
2022-08-05T12:13:15.668Z,101074.50
2022-08-05T12:15:49.734Z,101070.53
2022-08-05T12:18:32.340Z,101072.53
2022-08-05T12:21:12.259Z,101066.06
2022-08-05T12:23:43.080Z,101076.22
2022-08-05T12:26:09.922Z,101076.84
2022-08-05T12:28:38.210Z,101088.81
2022-08-05T12:31:05.620Z,101076.38
2022-08-05T12:33:36.643Z,101082.91
2022-08-05T12:36:08.470Z,101073.22
2022-08-05T12:38:40.103Z,101082.16
2022-08-05T12:41:16.446Z,101079.66
2022-08-05T12:43:54.987Z,101070.19
2022-08-05T12:46:29.079Z,101078.34
2022-08-05T12:49:14.586Z,101075.66
2022-08-05T12:52:14.426Z,101071.19
2022-08-05T12:54:47.638Z,101072.25
2022-08-05T12:57:17.438Z,101087.69
2022-08-05T13:01:57.418Z,101093.34
2022-08-05T13:02:36.235Z,101084.03
2022-08-05T13:05:06.488Z,101087.19
2022-08-05T13:07:59.579Z,101090.19
2022-08-05T13:10:20.469Z,101087.00
2022-08-05T13:12:51.163Z,101103.88
2022-08-05T13:15:35.922Z,101105.38
2022-08-05T13:18:08.492Z,101092.78
2022-08-05T13:20:35.835Z,101097.16
2022-08-05T13:23:07.520Z,101095.84
2022-08-05T13:25:51.805Z,101102.13
2022-08-05T13:28:22.068Z,101107.88
2022-08-05T13:30:48.845Z,101116.38
2022-08-05T13:34:22.728Z,101110.44
2022-08-05T13:36:05.206Z,101111.34
2022-08-05T13:38:38.161Z,101112.31
2022-08-05T13:41:05.016Z,101106.44
2022-08-05T13:43:44.956Z,101112.03
2022-08-05T13:46:35.691Z,101108.47
2022-08-05T13:49:09.777Z,101100.25
2022-08-05T13:51:40.893Z,101112.44
2022-08-05T13:54:11.779Z,101106.66
2022-08-05T13:56:39.893Z,101105.38
2022-08-05T13:59:20.107Z,101110.22
2022-08-05T14:01:56.857Z,101112.56
2022-08-05T14:04:49.782Z,101111.00
2022-08-05T14:07:25.715Z,101110.25
2022-08-05T14:10:11.922Z,101118.28
2022-08-05T14:12:39.592Z,101118.13
2022-08-05T14:16:05.185Z,101116.63
2022-08-05T14:17:59.492Z,101114.09
2022-08-05T14:20:27.593Z,101121.53
2022-08-05T14:22:54.583Z,101130.84
2022-08-05T14:25:22.461Z,101125.72
2022-08-05T14:27:54.489Z,101131.31
2022-08-05T14:30:21.476Z,101128.63
2022-08-05T14:32:48.870Z,101139.78
2022-08-05T14:35:16.266Z,101144.69
2022-08-05T14:37:52.132Z,101134.66
2022-08-05T14:40:24.308Z,101151.38
2022-08-05T14:42:51.564Z,101156.44
2022-08-05T14:45:18.742Z,101152.34
2022-08-05T14:48:04.270Z,101175.97
2022-08-05T14:50:31.794Z,101172.47
2022-08-05T14:52:59.613Z,101173.38
2022-08-05T14:55:38.748Z,101175.19
2022-08-05T14:58:11.169Z,101175.38
2022-08-05T15:00:58.416Z,101171.50
2022-08-05T15:03:25.917Z,101167.41
2022-08-05T15:06:08.184Z,101169.44
2022-08-05T15:08:57.997Z,101171.22
2022-08-05T15:11:51.697Z,101165.19
2022-08-05T15:14:12.194Z,101165.00
2022-08-05T15:16:58.692Z,101158.84
2022-08-05T15:19:26.299Z,101163.25
2022-08-05T15:21:52.911Z,101173.44
2022-08-05T15:24:19.681Z,101164.38
2022-08-05T15:26:46.926Z,101161.22
2022-08-05T15:29:15.277Z,101167.38
2022-08-05T15:31:41.818Z,101165.44
2022-08-05T15:34:31.729Z,101174.38
2022-08-05T15:36:55.037Z,101163.53
2022-08-05T15:41:01.991Z,101165.59
2022-08-05T15:42:55.195Z,101159.72
2022-08-05T15:44:55.196Z,101174.72
2022-08-05T15:47:22.586Z,101174.78
2022-08-05T15:49:55.984Z,101176.81
2022-08-05T15:52:53.790Z,101187.56
2022-08-05T15:55:15.457Z,101210.06
2022-08-05T15:57:43.179Z,101194.63
2022-08-05T16:00:12.437Z,101208.47
2022-08-05T16:02:43.757Z,101196.09
2022-08-05T16:05:11.226Z,101204.03
2022-08-05T16:07:38.294Z,101221.31
2022-08-05T16:10:12.989Z,101216.31
2022-08-05T16:12:39.822Z,101221.44
2022-08-05T16:15:06.977Z,101211.41
2022-08-05T16:17:36.241Z,101208.75
2022-08-05T16:20:11.744Z,101200.84
2022-08-05T16:22:39.102Z,101214.78
2022-08-05T16:25:09.915Z,101197.31
2022-08-05T16:28:01.063Z,101217.91
2022-08-05T16:30:26.514Z,101205.78
2022-08-05T16:32:55.632Z,101206.88
2022-08-05T16:35:28.116Z,101214.78
2022-08-05T16:38:03.073Z,101215.41
2022-08-05T16:40:51.788Z,101216.75
2022-08-05T16:43:23.814Z,101211.28
2022-08-05T16:46:04.781Z,101212.56
2022-08-05T16:48:36.579Z,101204.91
2022-08-05T16:51:08.693Z,101200.59
2022-08-05T16:54:02.546Z,101207.50
2022-08-05T16:56:29.357Z,101213.28
2022-08-05T16:58:56.780Z,101235.00
2022-08-05T17:01:24.311Z,101228.78
2022-08-05T17:03:51.941Z,101235.63
2022-08-05T17:06:19.067Z,101242.72
2022-08-05T17:08:52.224Z,101247.63
2022-08-05T17:11:25.324Z,101241.16
2022-08-05T17:14:05.874Z,101243.91
2022-08-05T17:16:35.908Z,101247.47
2022-08-05T17:19:07.815Z,101249.75
2022-08-05T17:21:37.704Z,101255.41
2022-08-05T17:24:28.343Z,101253.03
2022-08-05T17:26:58.047Z,101255.28
2022-08-05T17:29:33.484Z,101252.91
2022-08-05T17:32:06.773Z,101253.09
2022-08-05T17:34:35.088Z,101256.44
2022-08-05T17:37:01.862Z,101255.16
2022-08-05T17:39:34.162Z,101254.94
2022-08-05T17:42:18.439Z,101253.50
2022-08-05T17:44:50.263Z,101261.38
2022-08-05T17:47:22.467Z,101269.44
2022-08-05T17:50:00.429Z,101264.09
2022-08-05T17:52:34.950Z,101270.50
2022-08-05T17:55:22.087Z,101267.06
2022-08-05T17:57:50.264Z,101268.97
2022-08-05T18:00:17.427Z,101281.66
2022-08-05T18:02:46.780Z,101279.19
2022-08-05T18:05:13.685Z,101276.25
2022-08-05T18:07:43.986Z,101288.88
2022-08-05T18:10:14.136Z,101288.13
2022-08-05T18:12:50.978Z,101291.59
2022-08-05T18:15:17.634Z,101298.34
2022-08-05T18:18:00.201Z,101300.16
2022-08-05T18:20:32.430Z,101296.00
2022-08-05T18:23:09.535Z,101291.06
2022-08-05T18:25:39.484Z,101291.88
2022-08-05T18:28:10.575Z,101296.94
2022-08-05T18:30:39.175Z,101305.81
2022-08-05T18:33:07.444Z,101308.16
2022-08-05T18:35:59.829Z,101320.66
2022-08-05T18:38:26.502Z,101316.22
2022-08-05T18:41:57.469Z,101330.97
2022-08-05T18:43:42.738Z,101328.44
2022-08-05T18:46:10.240Z,101327.78
2022-08-05T18:48:41.834Z,101338.22
2022-08-05T18:52:05.292Z,101339.16
2022-08-05T18:54:14.928Z,101348.59
2022-08-05T18:56:51.164Z,101354.47
2022-08-05T18:59:44.470Z,101356.72
2022-08-05T19:02:11.217Z,101343.28
2022-08-05T19:05:01.118Z,101356.13
2022-08-05T19:07:30.198Z,101355.91
2022-08-05T19:10:13.027Z,101358.50
2022-08-05T19:12:40.243Z,101362.66
2022-08-05T19:15:25.019Z,101363.38
2022-08-05T19:18:09.786Z,101368.69
2022-08-05T19:20:41.330Z,101369.03
2022-08-05T19:24:03.726Z,101364.09
2022-08-05T19:26:01.009Z,101368.72
2022-08-05T19:28:28.785Z,101372.03
2022-08-05T19:30:55.931Z,101378.50
2022-08-05T19:33:35.398Z,101373.56
2022-08-05T19:36:06.778Z,101380.78
2022-08-05T19:38:36.771Z,101381.75
2022-08-05T19:41:06.791Z,101385.91
2022-08-05T19:44:06.490Z,101390.56
2022-08-05T19:46:30.078Z,101392.19
2022-08-05T19:49:02.859Z,101396.88
2022-08-05T19:52:05.702Z,101400.06
2022-08-05T19:54:27.094Z,101403.75
2022-08-05T19:56:58.582Z,101406.56
2022-08-05T19:59:56.103Z,101407.25
2022-08-05T20:02:13.045Z,101415.84
2022-08-05T20:04:42.811Z,101418.84
2022-08-05T20:07:10.389Z,101424.84
2022-08-05T20:09:54.849Z,101425.16
2022-08-05T20:12:24.762Z,101436.34
2022-08-05T20:14:52.863Z,101436.31
2022-08-05T20:17:23.606Z,101439.94
2022-08-05T20:19:57.021Z,101439.91
2022-08-05T20:22:25.066Z,101443.69
2022-08-05T20:24:54.385Z,101454.19
2022-08-05T20:27:26.640Z,101457.69
2022-08-05T20:29:58.495Z,101465.28
2022-08-05T20:32:26.930Z,101467.47
2022-08-05T20:34:53.961Z,101471.22
2022-08-05T20:38:08.006Z,101467.19
2022-08-05T20:40:08.362Z,101474.19
2022-08-05T20:42:35.607Z,101463.47
2022-08-05T20:45:02.520Z,101472.06
2022-08-05T20:47:32.460Z,101473.97
2022-08-05T20:49:59.848Z,101489.56
2022-08-05T20:52:29.635Z,101479.88
2022-08-05T20:55:15.861Z,101483.13
2022-08-05T20:57:44.910Z,101482.84
2022-08-05T21:00:41.029Z,101483.13
2022-08-05T21:03:06.973Z,101485.25
2022-08-05T21:05:48.213Z,101487.41
2022-08-05T21:08:21.286Z,101493.59
2022-08-05T21:10:54.778Z,101491.44
2022-08-05T21:13:36.789Z,101496.00
2022-08-05T21:16:11.726Z,101494.34
2022-08-05T21:18:38.546Z,101491.63
2022-08-05T21:21:11.800Z,101492.72
2022-08-05T21:23:39.013Z,101500.78
2022-08-05T21:26:08.329Z,101495.38
2022-08-05T21:28:40.213Z,101498.09
2022-08-05T21:31:14.593Z,101505.03
2022-08-05T21:33:43.426Z,101506.34
2022-08-05T21:36:27.551Z,101507.19
2022-08-05T21:38:54.639Z,101507.72
2022-08-05T21:41:21.461Z,101515.72
2022-08-05T21:44:01.815Z,101513.81
2022-08-05T21:46:34.671Z,101520.50
2022-08-05T21:49:07.388Z,101532.56
2022-08-05T21:52:21.348Z,101530.38
2022-08-05T21:54:28.043Z,101532.84
2022-08-05T21:57:29.196Z,101531.09
2022-08-05T22:00:02.123Z,101540.50
2022-08-05T22:02:30.545Z,101529.78
2022-08-05T22:04:58.646Z,101535.88
2022-08-05T22:07:39.889Z,101530.75
2022-08-05T22:10:12.304Z,101529.91
2022-08-05T22:12:40.152Z,101527.97
2022-08-05T22:15:16.796Z,101530.94
2022-08-05T22:18:03.630Z,101546.81
2022-08-05T22:20:30.198Z,101535.41
2022-08-05T22:23:21.532Z,101544.00
2022-08-05T22:26:10.150Z,101544.03
2022-08-05T22:28:38.724Z,101548.31
2022-08-05T22:31:05.839Z,101554.47
2022-08-05T22:33:58.407Z,101549.91
2022-08-05T22:36:19.544Z,101556.31
2022-08-05T22:38:51.546Z,101550.28
2022-08-05T22:41:25.935Z,101547.09
2022-08-05T22:44:08.160Z,101554.84
2022-08-05T22:46:40.087Z,101558.66
2022-08-05T22:49:12.514Z,101558.34
2022-08-05T22:52:06.060Z,101566.66
2022-08-05T22:54:35.634Z,101569.00
2022-08-05T22:57:03.530Z,101572.34
2022-08-05T22:59:48.287Z,101566.19
2022-08-05T23:02:18.216Z,101577.09
2022-08-05T23:04:51.632Z,101574.88
2022-08-05T23:07:22.126Z,101578.47
2022-08-05T23:09:58.428Z,101582.25
2022-08-05T23:12:32.538Z,101590.38
2022-08-05T23:15:00.013Z,101601.13
2022-08-05T23:17:34.712Z,101599.44
2022-08-05T23:20:16.522Z,101600.47
2022-08-05T23:22:43.725Z,101598.38
2022-08-05T23:25:17.153Z,101592.88
2022-08-05T23:28:00.249Z,101592.78
2022-08-05T23:30:28.972Z,101607.88
2022-08-05T23:32:55.865Z,101603.06
2022-08-05T23:35:24.361Z,101610.25
2022-08-05T23:38:00.678Z,101616.28
2022-08-05T23:40:27.501Z,101605.16
2022-08-05T23:42:54.221Z,101609.44
2022-08-05T23:45:21.062Z,101607.00
2022-08-05T23:47:52.045Z,101602.69
2022-08-05T23:50:20.546Z,101604.22
2022-08-05T23:52:50.388Z,101608.13
2022-08-05T23:55:19.087Z,101605.56
2022-08-05T23:57:49.040Z,101611.44
